• Join FlightAware (Why Join?)
  • Login
  • US Flag 
02:55AM EDT


 

Airport Tracker/Info


-or-


 

Live Flight TrackerFlight Track Log ✈ JBU1741 ✈ 23-Apr-2013 ✈ TJSJ / SJU - MDSD / SDQ

Flight Track Log - Related Links

Times and Time Zones

All times are in EDT time to prevent confusion due to time zone crossing. See the JBU1741 flight status page for this flight to view local times or setup timezone preferences in your user account.

Time Position Orientation Groundspeed Altitude Reporting Facility
EDT Latitude Longitude Course Direction KTS MPH feet Rate Location/Type
10:28AM 18.4333 -65.9667 276° West 150 173 1,100  Level San Juan Center
10:29AM 18.4833 -65.9833 342° North 210 242 2,200 1,800 Climbing San Juan Center
10:30AM 18.5000 -66.0500 285° West 250 288 4,800 2,400 Climbing San Juan Center
10:31AM 18.4500 -66.3733 270° West  Level FlightAware Approximate
10:31AM 18.4833 -66.1167 255° West 280 322 7,100  Level San Juan Center
10:32AM 18.4534 -66.4669 276° West  Level FlightAware Approximate
10:32AM 18.4667 -66.2000 258° West 290 334 10,000  Level San Juan Center
10:33AM 18.4627 -66.5602 276° West  Level FlightAware Approximate
10:33AM 18.4500 -66.3000 260° West 340 391 11,300  Level San Juan Center
10:34AM 18.4667 -66.4000 280° West 350 403 13,500 2,280 Climbing San Juan Center
10:35AM 18.4667 -66.5167 270° West 360 414 16,000 2,280 Climbing San Juan Center
10:36AM 18.4667 -66.6167 270° West 380 437 18,100 2,040 Climbing San Juan Center
10:37AM 18.4667 -66.7333 270° West 380 437 20,100 1,800 Climbing San Juan Center
10:38AM 18.4833 -66.8500 279° West 380 437 21,800 1,740 Climbing San Juan Center
10:39AM 18.4833 -66.9667 270° West 390 449 23,700 1,080 Climbing San Juan Center
10:40AM 18.4833 -67.0500 270° West 400 460 24,000 120 Climbing San Juan Center
10:41AM 18.4833 -67.2000 270° West 400 460 24,000  Level San Juan Center
10:42AM 18.4833 -67.3167 270° West 400 460 24,000  Level San Juan Center
10:43AM 18.4833 -67.4333 270° West 400 460 24,000  Level San Juan Center
10:44AM 18.4833 -67.5500 270° West 400 460 24,000  Level San Juan Center
10:45AM 18.4833 -67.6667 270° West 400 460 24,000  Level San Juan Center
10:46AM 18.4667 -67.7833 261° West 390 449 24,000  Level San Juan Center
10:47AM 18.4667 -67.9000 270° West 390 449 24,000  Level San Juan Center
10:49AM 18.4667 -68.0359 270° West  Level FlightAware Approximate
10:56AM 18.4547 -68.6923 268° West  Level FlightAware Approximate
10:57AM 18.4512 -68.7860 268° West  Level FlightAware Approximate
10:58AM 18.4500 -68.8798 270° West  Level FlightAware Approximate
10:59AM 18.4500 -68.9735 270° West  Level FlightAware Approximate
11:00AM 18.4449 -69.0671 265° West  Level FlightAware Approximate
11:01AM 18.4377 -69.1606 265° West  Level FlightAware Approximate
11:02AM 18.4333 -69.2542 270° West  Level FlightAware Approximate
11:03AM 18.4333 -69.3480 270° West  Level FlightAware Approximate
11:04AM 18.4333 -69.4418 270° West  Level FlightAware Approximate
11:05AM 18.4333 -69.5356 270° West  Level FlightAware Approximate
11:06AM 18.4211 -69.6280 258° West  Level FlightAware Approximate
11:07AM 18.4167 -69.6500 258° West  Level FlightAware Approximate
11:08AM 18.4297 -69.6689 258° West  Level Estimated
11:09AM 18.4297 -69.6689 258° West  Level Estimated
11:10AM 18.4297 -69.6689 258° West  Level Estimated
11:11AM 18.4297 -69.6689 258° West  Level Estimated
11:12AM 18.4297 -69.6689 258° West  Level Estimated
11:13AM 18.4297 -69.6689 258° West  Level Estimated
11:14AM 18.4297 -69.6689 258° West  Level Estimated
11:15AM 18.4297 -69.6689 258° West  Level Estimated
11:16AM 18.4297 -69.6689 258° West  Level Estimated